Time;durP1;ratioP1;P1;durP2;ratioP2;P2;SDS_P1;SDS_P2;PMS_P1;PMS_P2;Temp;Humidity;BMP_temperature;BMP_pressure;BME280_temperature;BME280_humidity;BME280_pressure;Samples;Min_cycle;Max_cycle;Signal;HPM_P1;HPM_P2
2024/04/10 00:00:16;;;;;;;3.83;1.20;;;;;;;4.14;90.39;96495.72;7394619;19;19991;-58
2024/04/10 00:02:42;;;;;;;1.75;1.30;;;;;;;4.24;90.18;96494.72;7394567;19;19995;-59
2024/04/10 00:05:08;;;;;;;1.52;1.40;;;;;;;4.29;90.26;96492.09;7393013;19;20007;-60
2024/04/10 00:07:35;;;;;;;2.17;1.35;;;;;;;4.08;90.85;96499.25;7393106;19;20122;-57
2024/04/10 00:10:01;;;;;;;1.70;1.45;;;;;;;4.05;91.07;96501.88;7394405;19;20473;-58
2024/04/10 00:12:27;;;;;;;2.42;1.20;;;;;;;4.22;91.84;96499.09;7394298;19;20353;-57
2024/04/10 00:14:53;;;;;;;1.55;1.33;;;;;;;4.14;91.76;96500.91;7394115;19;19999;-58
2024/04/10 00:17:19;;;;;;;2.47;1.50;;;;;;;4.08;91.44;96495.81;7394104;19;20006;-60
2024/04/10 00:19:51;;;;;;;2.95;1.55;;;;;;;4.00;92.33;96491.59;7393983;19;20783;-58
2024/04/10 00:22:17;;;;;;;1.85;1.70;;;;;;;3.96;91.60;96494.22;7394045;19;19999;-62
2024/04/10 00:24:44;;;;;;;2.47;1.80;;;;;;;4.06;91.87;96490.66;7393803;19;20005;-55
2024/04/10 00:27:09;;;;;;;1.67;1.52;;;;;;;4.16;91.08;96494.00;7394362;19;19994;-58
2024/04/10 00:29:36;;;;;;;2.97;1.70;;;;;;;4.22;90.37;96491.31;7393802;19;20330;-55
2024/04/10 00:32:01;;;;;;;1.58;1.48;;;;;;;4.14;90.00;96491.41;7392391;19;20079;-54
2024/04/10 00:34:27;;;;;;;2.05;1.67;;;;;;;4.09;91.81;96485.44;7393612;19;20493;-57
2024/04/10 00:36:52;;;;;;;4.53;1.83;;;;;;;4.22;91.52;96483.56;7393623;19;19994;-56
2024/04/10 00:39:18;;;;;;;2.08;1.42;;;;;;;4.12;91.08;96479.38;7393606;19;20012;-58
2024/04/10 00:41:43;;;;;;;1.70;1.40;;;;;;;4.07;90.69;96478.56;7393900;19;19995;-60
2024/04/10 00:44:09;;;;;;;1.92;1.70;;;;;;;3.95;92.06;96479.59;7396646;19;19998;-57
2024/04/10 00:46:35;;;;;;;2.47;1.75;;;;;;;3.92;91.78;96478.72;7401190;19;20070;-58
2024/04/10 00:49:02;;;;;;;1.52;1.30;;;;;;;3.92;91.85;96475.31;7400640;19;20066;-57
2024/04/10 00:51:28;;;;;;;2.05;1.42;;;;;;;3.92;92.38;96470.13;7398822;19;20066;-59
2024/04/10 00:53:54;;;;;;;1.58;1.33;;;;;;;4.01;92.81;96464.81;7400523;19;20001;-58
2024/04/10 00:56:20;;;;;;;3.65;1.70;;;;;;;4.07;92.00;96473.38;7400782;19;20022;-58
2024/04/10 00:58:47;;;;;;;2.38;1.52;;;;;;;3.91;92.07;96468.41;7400414;19;20415;-54
2024/04/10 01:01:13;;;;;;;2.97;1.50;;;;;;;3.83;92.17;96455.56;7400715;19;20349;-58
2024/04/10 01:03:40;;;;;;;1.60;1.50;;;;;;;3.76;92.91;96457.38;7399601;19;19999;-53
2024/04/10 01:06:08;;;;;;;8.70;1.50;;;;;;;3.81;92.90;96456.44;7400575;19;20019;-58
2024/04/10 01:08:36;;;;;;;2.20;1.55;;;;;;;3.78;92.87;96460.81;7399987;19;20453;-55
2024/04/10 01:11:04;;;;;;;1.92;1.30;;;;;;;3.71;92.77;96451.41;7398795;19;19995;-58
2024/04/10 01:13:30;;;;;;;1.85;1.58;;;;;;;3.79;93.84;96459.06;7399862;19;20617;-57
2024/04/10 01:15:56;;;;;;;1.60;1.50;;;;;;;3.91;92.71;96468.41;7400187;19;20017;-59
2024/04/10 01:18:22;;;;;;;1.77;1.65;;;;;;;3.86;93.18;96459.84;7399690;19;20002;-61
2024/04/10 01:20:51;;;;;;;2.40;1.65;;;;;;;3.71;93.72;96463.47;7399711;19;20007;-58
2024/04/10 01:23:21;;;;;;;1.45;1.33;;;;;;;3.66;94.07;96468.72;7399744;19;19995;-57
2024/04/10 01:25:47;;;;;;;2.87;1.47;;;;;;;3.58;93.99;96457.59;7399619;19;20002;-61
2024/04/10 01:28:13;;;;;;;1.08;1.08;;;;;;;3.46;95.38;96472.38;7399358;19;20223;-57
2024/04/10 01:30:38;;;;;;;2.78;1.83;;;;;;;3.55;95.37;96461.06;7398511;19;20014;-58
2024/04/10 01:33:04;;;;;;;3.47;1.73;;;;;;;3.57;95.36;96461.91;7399174;19;20003;-58
2024/04/10 01:35:30;;;;;;;1.80;1.60;;;;;;;3.47;95.30;96456.00;7399037;19;20010;-58
2024/04/10 01:37:56;;;;;;;2.10;1.40;;;;;;;3.47;96.19;96450.81;7399003;19;20005;-59
2024/04/10 01:40:23;;;;;;;4.22;1.95;;;;;;;3.39;96.23;96453.50;7399034;19;20012;-61
2024/04/10 01:42:49;;;;;;;6.07;1.73;;;;;;;3.40;97.46;96450.00;7399032;19;20465;-59
2024/04/10 01:45:15;;;;;;;1.70;1.60;;;;;;;3.54;97.35;96449.00;7398826;19;20007;-59
2024/04/10 01:47:41;;;;;;;3.92;1.60;;;;;;;3.57;96.75;96453.28;7398697;19;20011;-62
2024/04/10 01:50:06;;;;;;;4.38;1.67;;;;;;;3.66;95.98;96441.13;7398374;19;20074;-59
2024/04/10 01:52:33;;;;;;;2.15;1.52;;;;;;;3.65;95.60;96446.31;7398951;19;20017;-60
2024/04/10 01:54:59;;;;;;;2.85;1.63;;;;;;;3.60;95.93;96443.75;7397284;19;20011;-59
2024/04/10 01:57:24;;;;;;;3.17;1.90;;;;;;;3.56;95.94;96439.50;7397932;19;19999;-58
2024/04/10 01:59:50;;;;;;;2.40;1.88;;;;;;;3.46;96.72;96441.31;7398808;19;20013;-56
2024/04/10 02:02:16;;;;;;;4.90;1.63;;;;;;;3.53;96.05;96435.19;7398036;19;19999;-58
2024/04/10 02:04:41;;;;;;;1.85;1.63;;;;;;;3.49;95.76;96428.38;7396776;19;20009;-60
2024/04/10 02:07:07;;;;;;;2.13;1.65;;;;;;;3.48;95.21;96430.97;7398353;19;20469;-59
2024/04/10 02:09:33;;;;;;;2.50;1.73;;;;;;;3.38;97.19;96428.50;7398019;19;20461;-59
2024/04/10 02:11:59;;;;;;;2.15;1.65;;;;;;;3.36;97.79;96425.06;7396068;19;20015;-61
2024/04/10 02:14:27;;;;;;;1.80;1.60;;;;;;;3.39;97.36;96429.34;7397918;19;19995;-57
2024/04/10 02:16:53;;;;;;;3.95;1.55;;;;;;;3.37;96.91;96431.94;7398105;19;19991;-58
2024/04/10 02:19:19;;;;;;;3.03;1.75;;;;;;;3.15;97.49;96431.31;7397933;19;19998;-57
2024/04/10 02:21:44;;;;;;;3.88;1.50;;;;;;;3.25;97.27;96434.69;7397630;19;20015;-57
2024/04/10 02:24:10;;;;;;;3.33;1.63;;;;;;;3.29;97.24;96431.19;7397505;19;20054;-59
2024/04/10 02:26:35;;;;;;;1.98;1.60;;;;;;;3.22;96.47;96429.53;7397854;19;20002;-58
2024/04/10 02:29:01;;;;;;;1.75;1.52;;;;;;;3.05;97.27;96430.56;7397343;19;20480;-58
2024/04/10 02:31:26;;;;;;;1.65;1.50;;;;;;;3.06;97.66;96429.69;7395948;19;20001;-56
2024/04/10 02:33:52;;;;;;;3.63;1.60;;;;;;;3.24;96.20;96427.78;7397206;19;20003;-55
2024/04/10 02:36:18;;;;;;;1.67;1.58;;;;;;;3.23;96.16;96432.13;7397047;19;20005;-55
2024/04/10 02:38:44;;;;;;;3.80;1.70;;;;;;;3.28;97.19;96434.63;7397058;19;19999;-57
2024/04/10 02:41:10;;;;;;;2.70;1.88;;;;;;;3.13;97.33;96430.50;7396912;19;20465;-53
2024/04/10 02:43:36;;;;;;;1.35;1.25;;;;;;;3.06;98.24;96434.00;7396801;19;20049;-56
2024/04/10 02:46:05;;;;;;;8.23;1.60;;;;;;;3.20;97.93;96445.06;7397171;19;20034;-61
2024/04/10 02:48:32;;;;;;;5.85;1.48;;;;;;;3.14;98.44;96443.41;7396644;19;20364;-57
2024/04/10 02:50:58;;;;;;;1.60;1.40;;;;;;;3.26;97.29;96441.56;7395991;19;20091;-53
2024/04/10 02:53:24;;;;;;;1.67;1.52;;;;;;;3.06;98.04;96445.19;7397115;19;20365;-54
2024/04/10 02:55:50;;;;;;;1.67;1.45;;;;;;;3.13;98.00;96448.59;7396458;19;20529;-56
2024/04/10 02:58:17;;;;;;;2.75;1.55;;;;;;;3.10;98.71;96444.28;7396364;19;20087;-58
2024/04/10 03:00:48;;;;;;;2.35;1.60;;;;;;;3.09;99.29;96442.59;7396239;19;20005;-60
2024/04/10 03:03:14;;;;;;;1.67;1.40;;;;;;;3.12;98.24;96436.53;7396179;19;20003;-60
2024/04/10 03:05:40;;;;;;;4.28;1.73;;;;;;;3.12;97.64;96444.28;7394732;19;20187;-57
2024/04/10 03:08:06;;;;;;;4.30;1.58;;;;;;;2.87;98.75;96447.09;7395806;19;20465;-58
2024/04/10 03:10:32;;;;;;;3.17;1.60;;;;;;;2.72;100.00;96459.28;7395454;19;19995;-58
2024/04/10 03:12:57;;;;;;;1.63;1.52;;;;;;;2.77;100.00;96457.50;7396111;19;20002;-58
2024/04/10 03:15:23;;;;;;;1.55;1.45;;;;;;;2.94;100.00;96458.22;7395772;19;19995;-60
2024/04/10 03:17:50;;;;;;;3.10;1.70;;;;;;;2.93;99.14;96467.72;7395779;19;19998;-62
2024/04/10 03:20:17;;;;;;;1.65;1.55;;;;;;;2.83;99.43;96460.91;7395656;19;20031;-58
2024/04/10 03:22:43;;;;;;;2.30;2.10;;;;;;;2.84;100.00;96463.50;7395716;19;20010;-57
2024/04/10 03:25:08;;;;;;;2.55;1.60;;;;;;;2.86;100.00;96469.47;7395467;19;20002;-56
2024/04/10 03:27:34;;;;;;;3.72;1.48;;;;;;;2.78;100.00;96459.25;7395913;19;20020;-56
2024/04/10 03:30:00;;;;;;;3.80;1.75;;;;;;;2.80;100.00;96463.53;7395796;19;20007;-58
2024/04/10 03:32:30;;;;;;;1.85;1.55;;;;;;;2.92;100.00;96470.31;7395303;19;19999;-61
2024/04/10 03:34:56;;;;;;;1.73;1.48;;;;;;;2.91;100.00;96474.63;7395291;19;20021;-57
2024/04/10 03:37:22;;;;;;;2.00;1.73;;;;;;;2.90;100.00;96473.78;7395206;19;20465;-56
2024/04/10 03:39:47;;;;;;;4.72;1.60;;;;;;;2.89;100.00;96474.63;7395542;19;20022;-56
2024/04/10 03:42:13;;;;;;;1.70;1.48;;;;;;;2.89;99.82;96479.78;7395492;19;20085;-54
2024/04/10 03:44:39;;;;;;;2.55;1.50;;;;;;;2.91;99.43;96477.19;7394937;19;19998;-59
2024/04/10 03:47:04;;;;;;;2.42;1.92;;;;;;;2.99;99.72;96479.72;7395078;19;19995;-54
2024/04/10 03:49:30;;;;;;;2.70;2.17;;;;;;;2.81;100.00;96485.91;7394914;19;20010;-57
2024/04/10 03:51:56;;;;;;;3.08;1.73;;;;;;;2.68;100.00;96490.31;7393347;19;20003;-58
2024/04/10 03:54:22;;;;;;;1.90;1.70;;;;;;;2.82;100.00;96498.81;7394754;19;19995;-53
2024/04/10 03:56:47;;;;;;;3.35;2.10;;;;;;;3.02;100.00;96500.38;7395104;19;20010;-62
2024/04/10 03:59:13;;;;;;;2.83;2.08;;;;;;;3.11;100.00;96483.94;7393209;19;20393;-58
2024/04/10 04:01:38;;;;;;;3.05;1.80;;;;;;;3.20;100.00;96494.19;7394552;19;20006;-59
2024/04/10 04:04:05;;;;;;;4.13;2.03;;;;;;;3.23;99.09;96494.16;7393859;19;20006;-55
2024/04/10 04:06:30;;;;;;;3.15;1.98;;;;;;;3.14;99.20;96494.25;7394479;19;20019;-58
2024/04/10 04:08:56;;;;;;;3.20;1.73;;;;;;;3.31;99.32;96491.47;7394726;19;20015;-57
2024/04/10 04:11:22;;;;;;;4.05;2.30;;;;;;;3.36;99.52;96499.19;7393216;19;20355;-53
2024/04/10 04:13:48;;;;;;;6.63;2.15;;;;;;;3.35;100.00;96503.53;7394210;19;20011;-59
2024/04/10 04:16:14;;;;;;;3.15;2.03;;;;;;;3.45;100.00;96501.69;7394169;19;20461;-58
2024/04/10 04:18:40;;;;;;;2.05;1.90;;;;;;;3.68;98.86;96505.78;7395975;19;20012;-55
2024/04/10 04:21:06;;;;;;;2.10;1.90;;;;;;;3.71;99.06;96505.75;7402070;19;20074;-59
2024/04/10 04:23:32;;;;;;;2.83;1.92;;;;;;;4.28;96.24;96514.53;7401955;19;20406;-57
2024/04/10 04:25:58;;;;;;;1.80;1.65;;;;;;;5.18;89.35;96512.31;7401490;19;20027;-55
2024/04/10 04:28:24;;;;;;;4.97;1.77;;;;;;;5.65;84.83;96508.06;7401429;19;19994;-57
2024/04/10 04:30:50;;;;;;;1.77;1.67;;;;;;;6.93;77.58;96511.44;7400293;19;20515;-55
2024/04/10 04:33:18;;;;;;;2.15;1.70;;;;;;;7.55;73.85;96516.88;7401280;19;19994;-56
2024/04/10 04:35:44;;;;;;;2.60;1.90;;;;;;;8.38;70.72;96519.81;7401204;19;20452;-58
2024/04/10 04:38:10;;;;;;;2.80;1.70;;;;;;;9.44;66.22;96529.59;7401138;19;20463;-60
2024/04/10 04:40:36;;;;;;;1.70;1.60;;;;;;;10.05;63.53;96529.28;7399712;19;20022;-56
2024/04/10 04:43:12;;;;;;;2.40;1.60;;;;;;;10.13;62.17;96542.03;7400822;19;20085;-59
2024/04/10 04:45:39;;;;;;;4.07;1.77;;;;;;;10.05;62.90;96531.91;7401529;19;20007;-58
2024/04/10 04:48:07;;;;;;;3.33;1.60;;;;;;;10.54;61.57;96531.84;7400728;19;19999;-59
2024/04/10 04:50:33;;;;;;;2.15;1.70;;;;;;;11.14;59.17;96542.66;7400026;19;20017;-59
2024/04/10 04:52:58;;;;;;;3.10;1.88;;;;;;;12.11;57.19;96540.38;7400863;19;20006;-58
2024/04/10 04:55:25;;;;;;;1.98;1.73;;;;;;;14.43;50.44;96561.72;7400582;19;20449;-60
2024/04/10 04:57:50;;;;;;;5.40;2.08;;;;;;;14.60;50.06;96557.31;7400821;19;20058;-61
2024/04/10 05:00:19;;;;;;;6.05;2.20;;;;;;;14.31;51.27;96557.94;7400381;19;20347;-54
2024/04/10 05:02:45;;;;;;;4.18;1.60;;;;;;;14.08;51.47;96561.75;7400208;19;20536;-55
2024/04/10 05:05:15;;;;;;;4.45;1.90;;;;;;;13.83;52.33;96550.75;7398747;19;20002;-61
2024/04/10 05:07:42;;;;;;;8.30;2.40;;;;;;;14.43;52.15;96551.19;7400640;19;20033;-56
2024/04/10 05:10:11;;;;;;;3.92;1.65;;;;;;;14.10;52.53;96549.41;7400056;19;19999;-55
2024/04/10 05:12:40;;;;;;;3.28;1.80;;;;;;;14.75;52.39;96556.47;7400339;19;20014;-59
2024/04/10 05:15:13;;;;;;;2.63;1.70;;;;;;;16.35;47.29;96558.03;7399884;19;20014;-57
2024/04/10 05:17:44;;;;;;;4.40;1.75;;;;;;;16.54;48.00;96555.94;7399954;19;19999;-61
2024/04/10 05:20:11;;;;;;;1.75;1.48;;;;;;;17.39;46.56;96564.75;7399832;19;20006;-57
2024/04/10 05:22:38;;;;;;;2.00;1.38;;;;;;;18.67;42.32;96568.63;7399576;19;20002;-57
2024/04/10 05:25:05;;;;;;;2.75;1.63;;;;;;;20.40;39.15;96568.44;7399933;19;20363;-58
2024/04/10 05:27:31;;;;;;;2.80;1.30;;;;;;;20.91;37.82;96566.31;7399755;19;20010;-57
2024/04/10 05:29:59;;;;;;;2.13;1.20;;;;;;;22.39;36.86;96570.22;7397035;19;20021;-63
2024/04/10 05:32:28;;;;;;;1.50;1.40;;;;;;;23.92;34.70;96572.03;7396601;19;20003;-53
2024/04/10 05:34:54;;;;;;;3.03;1.33;;;;;;;21.56;38.47;96566.41;7399298;19;20439;-55
2024/04/10 05:37:21;;;;;;;5.82;1.33;;;;;;;22.50;36.16;96571.97;7399060;19;19998;-60
2024/04/10 05:40:00;;;;;;;4.47;1.58;;;;;;;23.45;32.99;96576.25;7399000;19;20002;-59
2024/04/10 05:42:25;;;;;;;3.22;1.52;;;;;;;23.40;33.65;96568.66;7399468;19;20002;-56
2024/04/10 05:44:51;;;;;;;2.55;1.48;;;;;;;22.65;32.50;96569.81;7399322;19;20370;-55
2024/04/10 05:47:17;;;;;;;4.22;1.35;;;;;;;24.04;31.26;96578.06;7398693;19;20085;-58
2024/04/10 05:49:42;;;;;;;6.18;1.60;;;;;;;23.46;30.71;96581.44;7398787;19;20037;-56
2024/04/10 05:52:08;;;;;;;3.70;1.27;;;;;;;24.60;29.47;96579.06;7396687;19;19999;-56
2024/04/10 05:54:34;;;;;;;7.55;1.58;;;;;;;25.48;27.84;96586.84;7398890;19;19999;-55
2024/04/10 05:57:00;;;;;;;3.42;1.67;;;;;;;24.35;29.28;96588.59;7398939;19;20002;-55
2024/04/10 05:59:26;;;;;;;2.75;1.95;;;;;;;25.21;27.78;96589.41;7398345;19;20003;-55
2024/04/10 06:01:52;;;;;;;2.95;1.80;;;;;;;25.39;29.35;96585.91;7398315;19;20002;-59
2024/04/10 06:04:18;;;;;;;3.30;1.52;;;;;;;25.27;28.69;96590.66;7397359;19;20010;-56
2024/04/10 06:06:44;;;;;;;3.10;1.48;;;;;;;26.90;25.69;96604.88;7398619;19;20048;-57
2024/04/10 06:09:09;;;;;;;4.15;1.50;;;;;;;24.59;28.24;96598.78;7398117;19;20465;-60
2024/04/10 06:11:35;;;;;;;2.47;1.65;;;;;;;25.07;31.57;96596.09;7396628;19;20007;-59
2024/04/10 06:14:00;;;;;;;1.92;1.42;;;;;;;20.54;36.09;96580.66;7397889;19;20013;-54
2024/04/10 06:16:26;;;;;;;4.30;1.60;;;;;;;18.53;41.52;96570.44;7397735;19;20002;-58
2024/04/10 06:18:51;;;;;;;5.38;2.03;;;;;;;19.18;39.58;96572.97;7397730;19;19991;-57
2024/04/10 06:21:17;;;;;;;2.47;1.52;;;;;;;18.92;38.67;96572.16;7398196;19;20014;-57
2024/04/10 06:23:43;;;;;;;3.00;1.60;;;;;;;19.45;37.43;96582.50;7398029;19;20363;-57
2024/04/10 06:26:09;;;;;;;3.40;1.83;;;;;;;18.90;40.63;96572.28;7397920;19;20345;-57
2024/04/10 06:28:35;;;;;;;3.58;1.45;;;;;;;19.78;38.07;96581.94;7397861;19;20388;-58
2024/04/10 06:31:03;;;;;;;2.33;1.80;;;;;;;20.03;37.77;96580.09;7396876;19;20002;-57
2024/04/10 06:33:29;;;;;;;3.42;1.60;;;;;;;21.44;35.75;96578.91;7397255;19;20022;-58
2024/04/10 06:36:05;;;;;;;7.50;1.90;;;;;;;20.99;36.18;96579.84;7397097;19;20449;-58
2024/04/10 06:38:34;;;;;;;3.03;1.50;;;;;;;20.79;37.47;96573.41;7397629;19;20066;-53
2024/04/10 06:41:02;;;;;;;3.33;1.73;;;;;;;20.43;36.68;96573.53;7396350;19;19995;-58
2024/04/10 06:43:28;;;;;;;5.93;1.50;;;;;;;20.21;36.33;96583.16;7396763;19;20006;-56
2024/04/10 06:46:04;;;;;;;3.50;1.83;;;;;;;21.19;34.86;96582.72;7396836;19;20014;-55
2024/04/10 06:48:30;;;;;;;2.80;1.60;;;;;;;21.45;35.20;96587.72;7396941;19;20051;-59
2024/04/10 06:50:59;;;;;;;6.45;1.80;;;;;;;22.36;31.64;96583.81;7395971;19;20010;-57
2024/04/10 06:53:26;;;;;;;5.32;1.88;;;;;;;21.40;33.34;96584.59;7396969;19;20003;-56
2024/04/10 06:55:59;;;;;;;3.80;1.40;;;;;;;21.82;33.53;96583.84;7396583;19;20002;-56
2024/04/10 06:58:26;;;;;;;4.15;1.50;;;;;;;22.18;32.71;96592.38;7396509;19;19999;-60
2024/04/10 07:00:59;;;;;;;6.60;1.90;;;;;;;20.56;34.96;96590.22;7396791;19;20006;-58
2024/04/10 07:03:29;;;;;;;5.35;1.38;;;;;;;21.09;35.04;96593.25;7396267;19;20014;-58
2024/04/10 07:06:15;;;;;;;6.63;1.65;;;;;;;21.28;35.26;96597.91;7396351;19;20003;-55
2024/04/10 07:08:49;;;;;;;4.35;1.63;;;;;;;21.75;33.42;96598.63;7396233;19;20018;-55
2024/04/10 07:11:16;;;;;;;7.10;1.60;;;;;;;21.70;34.74;96596.34;7395255;19;19999;-55
2024/04/10 07:13:46;;;;;;;6.10;1.73;;;;;;;21.58;34.46;96591.06;7396376;19;20042;-59
2024/04/10 07:16:12;;;;;;;4.97;1.58;;;;;;;21.59;35.29;96591.91;7395880;19;20005;-57
2024/04/10 07:18:38;;;;;;;1.95;1.73;;;;;;;22.63;33.73;96595.75;7395992;19;19991;-56
2024/04/10 07:21:06;;;;;;;5.88;1.80;;;;;;;21.74;34.45;96602.25;7395786;19;20465;-56
2024/04/10 07:23:33;;;;;;;3.75;1.85;;;;;;;22.54;32.37;96596.50;7395923;19;19995;-51
2024/04/10 07:26:14;;;;;;;6.47;2.10;;;;;;;21.45;34.51;96595.69;7395515;19;19999;-56
2024/04/10 07:28:44;;;;;;;6.30;1.92;;;;;;;22.04;32.62;96593.56;7395647;19;20015;-60
2024/04/10 07:31:11;;;;;;;5.13;2.80;;;;;;;21.45;33.71;96598.34;7394745;19;20003;-56
2024/04/10 07:33:37;;;;;;;4.32;2.42;;;;;;;21.44;34.43;96602.84;7395474;19;20244;-59
2024/04/10 07:36:21;;;;;;;8.05;2.58;;;;;;;22.38;34.03;96594.31;7395297;19;20010;-57
2024/04/10 07:38:48;;;;;;;6.13;2.53;;;;;;;20.98;33.82;96596.75;7395259;19;20007;-53
2024/04/10 07:41:14;;;;;;;10.88;2.70;;;;;;;21.58;34.64;96596.38;7395085;19;20005;-54
2024/04/10 07:43:41;;;;;;;4.97;2.67;;;;;;;21.89;33.61;96593.03;7395097;19;20047;-57
2024/04/10 07:46:16;;;;;;;8.57;2.97;;;;;;;21.59;34.03;96595.41;7395028;19;20006;-55
2024/04/10 07:48:44;;;;;;;5.95;2.45;;;;;;;21.17;34.00;96598.81;7395092;19;20002;-55
2024/04/10 07:51:13;;;;;;;10.82;3.00;;;;;;;22.01;32.33;96592.97;7394221;19;20070;-56
2024/04/10 07:53:40;;;;;;;8.00;3.40;;;;;;;22.84;31.54;96600.19;7396502;19;19998;-59
2024/04/10 07:56:07;;;;;;;7.82;2.90;;;;;;;22.08;33.60;96589.69;7402498;19;19991;-57
2024/04/10 07:58:34;;;;;;;10.48;3.17;;;;;;;22.64;32.53;96586.81;7402427;19;20464;-56
2024/04/10 08:01:00;;;;;;;7.10;2.83;;;;;;;21.58;32.49;96592.88;7402781;19;20006;-56
2024/04/10 08:03:30;;;;;;;6.78;2.70;;;;;;;21.95;33.29;96589.84;7402294;19;20011;-57
2024/04/10 08:05:57;;;;;;;6.30;2.85;;;;;;;22.30;31.88;96592.31;7402217;19;20025;-55
2024/04/10 08:08:24;;;;;;;6.10;3.05;;;;;;;21.55;32.98;96588.66;7402092;19;20013;-59
2024/04/10 08:11:04;;;;;;;6.13;2.67;;;;;;;22.38;31.08;96579.19;7401081;19;20010;-56
2024/04/10 08:13:30;;;;;;;10.15;2.67;;;;;;;21.75;31.21;96588.84;7402184;19;20007;-58
2024/04/10 08:16:01;;;;;;;9.63;3.17;;;;;;;21.63;32.19;96588.03;7401856;19;20006;-58
2024/04/10 08:18:30;;;;;;;4.70;2.83;;;;;;;21.69;32.05;96590.19;7401920;19;20018;-53
2024/04/10 08:21:02;;;;;;;5.03;2.83;;;;;;;21.84;33.81;96598.75;7401676;19;20005;-58
2024/04/10 08:23:32;;;;;;;6.95;2.83;;;;;;;22.13;32.62;96591.94;7401706;19;20006;-53
2024/04/10 08:25:59;;;;;;;8.63;2.70;;;;;;;22.16;32.39;96593.50;7401747;19;20015;-59
2024/04/10 08:28:25;;;;;;;9.23;2.72;;;;;;;22.87;30.67;96589.25;7401414;19;20352;-54
2024/04/10 08:30:55;;;;;;;3.72;2.28;;;;;;;22.61;31.20;96583.53;7400398;19;20341;-55
2024/04/10 08:33:22;;;;;;;6.88;2.50;;;;;;;22.78;31.59;96579.44;7401298;19;20032;-57
2024/04/10 08:35:52;;;;;;;7.82;3.03;;;;;;;22.33;31.49;96574.25;7401131;19;19990;-57
2024/04/10 08:38:18;;;;;;;8.27;2.58;;;;;;;22.47;32.16;96582.88;7401542;19;20009;-56
2024/04/10 08:40:50;;;;;;;7.45;2.55;;;;;;;22.71;31.00;96582.63;7401012;19;20359;-57
2024/04/10 08:43:18;;;;;;;5.22;2.40;;;;;;;22.29;31.25;96583.50;7401081;19;19999;-57
2024/04/10 08:45:44;;;;;;;4.80;2.30;;;;;;;22.78;31.49;96577.59;7400853;19;20015;-57
2024/04/10 08:48:10;;;;;;;6.03;2.30;;;;;;;22.75;31.28;96572.50;7400797;19;20003;-57
2024/04/10 08:50:38;;;;;;;4.63;1.80;;;;;;;22.44;32.04;96575.16;7400501;19;20009;-58
2024/04/10 08:53:05;;;;;;;8.07;2.38;;;;;;;22.87;30.96;96575.94;7400720;19;19999;-59
2024/04/10 08:55:33;;;;;;;5.93;2.10;;;;;;;22.91;31.88;96576.50;7400527;19;19999;-57
2024/04/10 08:57:58;;;;;;;8.20;2.92;;;;;;;23.04;31.26;96576.25;7400482;19;20050;-58
2024/04/10 09:00:24;;;;;;;12.45;2.60;;;;;;;22.34;32.38;96567.13;7400309;19;20012;-54
2024/04/10 09:02:50;;;;;;;6.05;2.00;;;;;;;22.77;30.69;96569.72;7400699;19;20002;-55
2024/04/10 09:05:36;;;;;;;4.95;2.30;;;;;;;22.93;31.51;96574.53;7397888;19;20017;-60
2024/04/10 09:08:05;;;;;;;9.38;2.30;;;;;;;20.98;31.76;96567.50;7399909;19;20182;-54
2024/04/10 09:10:30;;;;;;;6.03;2.60;;;;;;;21.79;36.22;96560.19;7399625;19;20009;-56
2024/04/10 09:13:12;;;;;;;9.85;2.28;;;;;;;22.24;31.33;96564.38;7399962;19;19995;-56
2024/04/10 09:15:38;;;;;;;4.93;2.55;;;;;;;22.31;31.39;96562.88;7400016;19;20070;-58
2024/04/10 09:18:04;;;;;;;8.02;2.42;;;;;;;;;;7399889;19;19999;-57
2024/04/10 09:20:31;;;;;;;7.68;2.40;;;;;;;22.44;31.32;96573.34;7399635;19;20005;-56
2024/04/10 09:23:01;;;;;;;2.92;1.90;;;;;;;22.72;30.98;96564.78;7400116;19;20022;-56
2024/04/10 09:25:27;;;;;;;5.55;2.05;;;;;;;22.63;32.06;96562.94;7399538;19;19995;-56
2024/04/10 09:27:58;;;;;;;4.88;2.00;;;;;;;21.98;32.12;96567.47;7399480;19;20005;-53
2024/04/10 09:30:24;;;;;;;4.82;2.30;;;;;;;21.69;32.75;96563.56;7399420;19;19998;-59
2024/04/10 09:32:50;;;;;;;3.55;1.95;;;;;;;22.28;31.87;96560.50;7399406;19;20038;-55
2024/04/10 09:35:16;;;;;;;4.13;2.22;;;;;;;21.56;32.41;96568.22;7399192;19;20011;-57
2024/04/10 09:37:41;;;;;;;3.72;1.92;;;;;;;22.45;32.32;96553.69;7399188;19;20014;-55
2024/04/10 09:40:07;;;;;;;3.70;1.80;;;;;;;23.06;32.33;96553.81;7399134;19;19995;-59
2024/04/10 09:42:44;;;;;;;5.95;2.20;;;;;;;22.74;33.30;96557.50;7399366;19;20003;-57
2024/04/10 09:45:16;;;;;;;5.18;2.10;;;;;;;22.77;32.78;96551.06;7398977;19;20062;-55
2024/04/10 09:47:44;;;;;;;9.43;2.55;;;;;;;22.42;31.36;96559.28;7398839;19;20013;-57
2024/04/10 09:50:24;;;;;;;7.82;2.25;;;;;;;22.55;33.58;96547.59;7399073;19;20011;-56
2024/04/10 09:52:51;;;;;;;5.85;1.98;;;;;;;22.58;32.70;96552.69;7398773;19;20485;-50
2024/04/10 09:55:17;;;;;;;5.88;2.03;;;;;;;22.67;31.82;96551.84;7398553;19;20456;-54
2024/04/10 09:57:44;;;;;;;6.45;2.40;;;;;;;22.87;33.78;96543.94;7398894;19;20002;-53
2024/04/10 10:00:13;;;;;;;5.10;2.20;;;;;;;22.43;31.79;96552.97;7398513;19;20115;-56
2024/04/10 10:02:39;;;;;;;3.97;1.90;;;;;;;23.28;32.82;96549.22;7398292;19;20032;-57
2024/04/10 10:05:05;;;;;;;7.32;2.15;;;;;;;23.05;33.18;96541.47;7397000;19;20003;-56
2024/04/10 10:07:32;;;;;;;4.60;2.00;;;;;;;23.11;32.04;96545.41;7398580;19;20047;-57
2024/04/10 10:10:06;;;;;;;5.82;2.20;;;;;;;22.91;30.84;96544.50;7398117;19;20003;-56
2024/04/10 10:12:31;;;;;;;9.30;2.10;;;;;;;23.12;32.37;96549.78;7396282;19;20010;-57
2024/04/10 10:15:11;;;;;;;7.53;2.20;;;;;;;23.07;31.62;96541.31;7397866;19;19998;-53
2024/04/10 10:17:37;;;;;;;3.78;1.80;;;;;;;23.32;32.55;96534.63;7396201;19;20040;-57
2024/04/10 10:20:04;;;;;;;6.28;1.95;;;;;;;23.00;33.26;96533.03;7398044;19;20010;-56
2024/04/10 10:22:29;;;;;;;7.03;2.05;;;;;;;23.35;32.45;96533.50;7397610;19;20500;-55
2024/04/10 10:24:59;;;;;;;4.38;2.10;;;;;;;23.88;31.79;96536.75;7397617;19;19995;-55
2024/04/10 10:27:25;;;;;;;4.40;1.83;;;;;;;23.65;30.47;96538.88;7397552;19;20009;-53
2024/04/10 10:30:02;;;;;;;5.85;2.25;;;;;;;22.77;29.75;96541.25;7397365;19;19999;-56
2024/04/10 10:32:28;;;;;;;5.07;1.80;;;;;;;23.26;32.83;96547.69;7395615;19;20003;-59
2024/04/10 10:34:53;;;;;;;5.40;2.00;;;;;;;23.32;32.25;96542.63;7397628;19;20094;-57
2024/04/10 10:37:19;;;;;;;4.13;2.00;;;;;;;23.57;31.20;96536.94;7397537;19;20018;-55
2024/04/10 10:39:45;;;;;;;5.53;2.08;;;;;;;23.18;31.20;96540.38;7397114;19;20011;-54
2024/04/10 10:42:10;;;;;;;8.48;1.95;;;;;;;22.57;32.60;96532.28;7397365;19;20006;-53
2024/04/10 10:44:36;;;;;;;12.13;2.30;;;;;;;23.71;31.09;96538.31;7396898;19;20453;-55
2024/04/10 10:47:07;;;;;;;5.22;2.08;;;;;;;22.95;32.83;96528.13;7396889;19;20003;-56
2024/04/10 10:49:33;;;;;;;3.90;1.80;;;;;;;24.02;30.81;96534.63;7396864;19;19999;-58
2024/04/10 10:51:58;;;;;;;3.28;1.70;;;;;;;23.65;29.91;96534.38;7395783;19;20003;-57
2024/04/10 10:54:24;;;;;;;5.22;1.55;;;;;;;23.82;32.52;96538.19;7396961;19;20457;-54
2024/04/10 10:56:50;;;;;;;4.35;1.50;;;;;;;23.14;29.88;96534.44;7396614;19;20461;-57
2024/04/10 10:59:15;;;;;;;2.10;1.60;;;;;;;23.56;32.07;96517.38;7396560;19;20003;-60
2024/04/10 11:01:41;;;;;;;6.75;1.88;;;;;;;24.27;31.85;96524.34;7396729;19;20002;-53
2024/04/10 11:04:16;;;;;;;3.97;1.80;;;;;;;23.93;30.84;96523.00;7395814;19;20524;-56
2024/04/10 11:06:42;;;;;;;8.57;1.83;;;;;;;24.01;32.52;96519.56;7396183;19;20010;-58
2024/04/10 11:09:11;;;;;;;7.55;1.70;;;;;;;23.66;30.02;96528.06;7396026;19;20463;-54
2024/04/10 11:11:37;;;;;;;3.88;1.58;;;;;;;23.82;31.56;96529.31;7395409;19;20054;-54
2024/04/10 11:14:03;;;;;;;3.35;1.60;;;;;;;23.50;32.90;96522.47;7395923;19;20511;-59
2024/04/10 11:16:33;;;;;;;2.63;1.40;;;;;;;23.91;31.44;96528.47;7395939;19;19999;-58
2024/04/10 11:19:00;;;;;;;9.20;2.15;;;;;;;22.13;29.69;96525.38;7395860;19;19994;-57
2024/04/10 11:21:26;;;;;;;8.32;1.70;;;;;;;22.82;31.10;96519.50;7396186;19;20031;-55
2024/04/10 11:23:52;;;;;;;2.72;1.55;;;;;;;23.25;32.05;96527.31;7395647;19;20469;-54
2024/04/10 11:26:18;;;;;;;5.55;1.92;;;;;;;24.07;31.92;96524.34;7395774;19;20010;-59
2024/04/10 11:28:46;;;;;;;4.15;1.70;;;;;;;23.71;32.08;96512.47;7395452;19;20074;-56
2024/04/10 11:31:11;;;;;;;5.68;2.15;;;;;;;21.65;30.36;96511.56;7394762;19;20016;-57
2024/04/10 11:33:37;;;;;;;5.18;1.77;;;;;;;22.88;31.13;96515.47;7395442;19;19995;-57
2024/04/10 11:36:03;;;;;;;6.05;1.58;;;;;;;23.71;31.41;96507.13;7395406;19;20002;-56